sensor_id;sensor_type;location;lat;lon;timestamp;temperature;humidity
52867;DHT22;38739;53.324;6.862;2023-06-10T00:00:13;16.90;99.90
52867;DHT22;38739;53.324;6.862;2023-06-10T00:02:41;16.80;99.90
52867;DHT22;38739;53.324;6.862;2023-06-10T00:05:07;16.80;99.90
52867;DHT22;38739;53.324;6.862;2023-06-10T00:07:34;16.80;99.90
52867;DHT22;38739;53.324;6.862;2023-06-10T00:10:04;16.70;99.90
52867;DHT22;38739;53.324;6.862;2023-06-10T00:12:31;16.60;99.90
52867;DHT22;38739;53.324;6.862;2023-06-10T00:15:04;16.50;99.90
52867;DHT22;38739;53.324;6.862;2023-06-10T00:17:30;16.40;99.90
52867;DHT22;38739;53.324;6.862;2023-06-10T00:19:56;16.40;99.90
52867;DHT22;38739;53.324;6.862;2023-06-10T00:22:23;16.30;99.90
52867;DHT22;38739;53.324;6.862;2023-06-10T00:24:50;16.30;99.90
52867;DHT22;38739;53.324;6.862;2023-06-10T00:27:16;16.20;99.90
52867;DHT22;38739;53.324;6.862;2023-06-10T00:29:42;16.10;99.90
52867;DHT22;38739;53.324;6.862;2023-06-10T00:32:07;16.10;99.90
52867;DHT22;38739;53.324;6.862;2023-06-10T00:34:33;16.00;99.90
52867;DHT22;38739;53.324;6.862;2023-06-10T00:36:59;16.00;99.90
52867;DHT22;38739;53.324;6.862;2023-06-10T00:39:25;15.90;99.90
52867;DHT22;38739;53.324;6.862;2023-06-10T00:41:51;15.80;99.90
52867;DHT22;38739;53.324;6.862;2023-06-10T00:44:16;15.80;99.90
52867;DHT22;38739;53.324;6.862;2023-06-10T00:46:42;15.70;99.90
52867;DHT22;38739;53.324;6.862;2023-06-10T00:49:09;15.60;99.90
52867;DHT22;38739;53.324;6.862;2023-06-10T00:51:35;15.60;99.90
52867;DHT22;38739;53.324;6.862;2023-06-10T00:54:02;15.50;99.90
52867;DHT22;38739;53.324;6.862;2023-06-10T00:56:27;15.40;99.90
52867;DHT22;38739;53.324;6.862;2023-06-10T00:58:54;15.30;99.90
52867;DHT22;38739;53.324;6.862;2023-06-10T01:01:20;15.30;99.90
52867;DHT22;38739;53.324;6.862;2023-06-10T01:03:45;15.20;99.90
52867;DHT22;38739;53.324;6.862;2023-06-10T01:09:06;15.10;99.90
52867;DHT22;38739;53.324;6.862;2023-06-10T01:11:43;15.00;99.90
52867;DHT22;38739;53.324;6.862;2023-06-10T01:14:10;14.90;99.90
52867;DHT22;38739;53.324;6.862;2023-06-10T01:16:37;14.90;99.90
52867;DHT22;38739;53.324;6.862;2023-06-10T01:19:06;14.80;99.90
52867;DHT22;38739;53.324;6.862;2023-06-10T01:21:33;14.80;99.90
52867;DHT22;38739;53.324;6.862;2023-06-10T01:23:58;14.70;99.90
52867;DHT22;38739;53.324;6.862;2023-06-10T01:26:29;14.70;99.90
52867;DHT22;38739;53.324;6.862;2023-06-10T01:29:07;14.70;99.90
52867;DHT22;38739;53.324;6.862;2023-06-10T01:32:01;14.60;99.90
52867;DHT22;38739;53.324;6.862;2023-06-10T01:34:31;14.60;99.90
52867;DHT22;38739;53.324;6.862;2023-06-10T01:36:58;14.50;99.90
52867;DHT22;38739;53.324;6.862;2023-06-10T01:39:25;14.40;99.90
52867;DHT22;38739;53.324;6.862;2023-06-10T01:41:52;14.40;99.90
52867;DHT22;38739;53.324;6.862;2023-06-10T01:44:22;14.40;99.90
52867;DHT22;38739;53.324;6.862;2023-06-10T01:46:48;14.40;99.90
52867;DHT22;38739;53.324;6.862;2023-06-10T01:49:14;14.30;99.90
52867;DHT22;38739;53.324;6.862;2023-06-10T01:51:40;14.30;99.90
52867;DHT22;38739;53.324;6.862;2023-06-10T01:54:06;14.30;99.90
52867;DHT22;38739;53.324;6.862;2023-06-10T01:56:32;14.30;99.90
52867;DHT22;38739;53.324;6.862;2023-06-10T01:58:58;14.20;99.90
52867;DHT22;38739;53.324;6.862;2023-06-10T02:01:28;14.20;99.90
52867;DHT22;38739;53.324;6.862;2023-06-10T02:03:54;14.20;99.90
52867;DHT22;38739;53.324;6.862;2023-06-10T02:06:20;14.10;99.90
52867;DHT22;38739;53.324;6.862;2023-06-10T02:08:45;14.10;99.90
52867;DHT22;38739;53.324;6.862;2023-06-10T02:11:11;14.10;99.90
52867;DHT22;38739;53.324;6.862;2023-06-10T02:13:38;14.00;99.90
52867;DHT22;38739;53.324;6.862;2023-06-10T02:16:04;14.00;99.90
52867;DHT22;38739;53.324;6.862;2023-06-10T02:18:31;14.00;99.90
52867;DHT22;38739;53.324;6.862;2023-06-10T02:20:57;13.90;99.90
52867;DHT22;38739;53.324;6.862;2023-06-10T02:23:23;13.90;99.90
52867;DHT22;38739;53.324;6.862;2023-06-10T02:25:48;13.80;99.90
52867;DHT22;38739;53.324;6.862;2023-06-10T02:28:14;13.80;99.90
52867;DHT22;38739;53.324;6.862;2023-06-10T02:30:41;13.80;99.90
52867;DHT22;38739;53.324;6.862;2023-06-10T02:33:07;13.80;99.90
52867;DHT22;38739;53.324;6.862;2023-06-10T02:35:38;13.80;99.90
52867;DHT22;38739;53.324;6.862;2023-06-10T02:38:03;13.80;99.90
52867;DHT22;38739;53.324;6.862;2023-06-10T02:40:29;13.70;99.90
52867;DHT22;38739;53.324;6.862;2023-06-10T02:42:55;13.70;99.90
52867;DHT22;38739;53.324;6.862;2023-06-10T02:45:21;13.70;99.90
52867;DHT22;38739;53.324;6.862;2023-06-10T02:47:46;13.70;99.90
52867;DHT22;38739;53.324;6.862;2023-06-10T02:50:12;13.70;99.90
52867;DHT22;38739;53.324;6.862;2023-06-10T02:52:38;13.60;99.90
52867;DHT22;38739;53.324;6.862;2023-06-10T02:55:04;13.60;99.90
52867;DHT22;38739;53.324;6.862;2023-06-10T02:57:30;13.60;99.90
52867;DHT22;38739;53.324;6.862;2023-06-10T02:59:56;13.60;99.90
52867;DHT22;38739;53.324;6.862;2023-06-10T03:02:24;13.60;99.90
52867;DHT22;38739;53.324;6.862;2023-06-10T03:04:57;13.50;99.90
52867;DHT22;38739;53.324;6.862;2023-06-10T03:07:23;13.60;99.90
52867;DHT22;38739;53.324;6.862;2023-06-10T03:09:50;13.50;99.90
52867;DHT22;38739;53.324;6.862;2023-06-10T03:12:16;13.50;99.90
52867;DHT22;38739;53.324;6.862;2023-06-10T03:14:41;13.50;99.90
52867;DHT22;38739;53.324;6.862;2023-06-10T03:17:07;13.50;99.90
52867;DHT22;38739;53.324;6.862;2023-06-10T03:19:34;13.50;99.90
52867;DHT22;38739;53.324;6.862;2023-06-10T03:22:14;13.40;99.90
52867;DHT22;38739;53.324;6.862;2023-06-10T03:24:40;13.40;99.90
52867;DHT22;38739;53.324;6.862;2023-06-10T03:27:07;13.40;99.90
52867;DHT22;38739;53.324;6.862;2023-06-10T03:29:33;13.40;99.90
52867;DHT22;38739;53.324;6.862;2023-06-10T03:31:59;13.40;99.90
52867;DHT22;38739;53.324;6.862;2023-06-10T03:34:25;13.50;99.90
52867;DHT22;38739;53.324;6.862;2023-06-10T03:36:51;13.40;99.90
52867;DHT22;38739;53.324;6.862;2023-06-10T03:39:16;13.40;99.90
52867;DHT22;38739;53.324;6.862;2023-06-10T03:41:42;13.40;99.90
52867;DHT22;38739;53.324;6.862;2023-06-10T03:44:08;13.40;99.90
52867;DHT22;38739;53.324;6.862;2023-06-10T03:46:33;13.40;99.90
52867;DHT22;38739;53.324;6.862;2023-06-10T03:48:59;13.50;99.90
52867;DHT22;38739;53.324;6.862;2023-06-10T03:51:29;13.50;99.90
52867;DHT22;38739;53.324;6.862;2023-06-10T03:53:55;13.50;99.90
52867;DHT22;38739;53.324;6.862;2023-06-10T03:56:21;13.50;99.90
52867;DHT22;38739;53.324;6.862;2023-06-10T03:58:46;13.50;99.90
52867;DHT22;38739;53.324;6.862;2023-06-10T04:01:12;13.40;99.90
52867;DHT22;38739;53.324;6.862;2023-06-10T04:03:43;13.50;99.90
52867;DHT22;38739;53.324;6.862;2023-06-10T04:06:09;13.50;99.90
52867;DHT22;38739;53.324;6.862;2023-06-10T04:08:35;13.50;99.90
52867;DHT22;38739;53.324;6.862;2023-06-10T04:11:01;13.50;99.90
52867;DHT22;38739;53.324;6.862;2023-06-10T04:13:27;13.50;99.90
52867;DHT22;38739;53.324;6.862;2023-06-10T04:15:53;13.50;99.90
52867;DHT22;38739;53.324;6.862;2023-06-10T04:18:20;13.50;99.90
52867;DHT22;38739;53.324;6.862;2023-06-10T04:20:47;13.50;99.90
52867;DHT22;38739;53.324;6.862;2023-06-10T04:23:13;13.50;99.90
52867;DHT22;38739;53.324;6.862;2023-06-10T04:25:38;13.50;99.90
52867;DHT22;38739;53.324;6.862;2023-06-10T04:28:04;13.50;99.90
52867;DHT22;38739;53.324;6.862;2023-06-10T04:30:30;13.50;99.90
52867;DHT22;38739;53.324;6.862;2023-06-10T04:32:57;13.50;99.90
52867;DHT22;38739;53.324;6.862;2023-06-10T04:35:22;13.60;99.90
52867;DHT22;38739;53.324;6.862;2023-06-10T04:37:48;13.60;99.90
52867;DHT22;38739;53.324;6.862;2023-06-10T04:40:14;13.70;99.90
52867;DHT22;38739;53.324;6.862;2023-06-10T04:42:41;13.70;99.90
52867;DHT22;38739;53.324;6.862;2023-06-10T04:45:07;13.70;99.90
52867;DHT22;38739;53.324;6.862;2023-06-10T04:47:33;13.70;99.90
52867;DHT22;38739;53.324;6.862;2023-06-10T04:50:03;13.80;99.90
52867;DHT22;38739;53.324;6.862;2023-06-10T04:52:29;13.80;99.90
52867;DHT22;38739;53.324;6.862;2023-06-10T04:54:57;13.80;99.90
52867;DHT22;38739;53.324;6.862;2023-06-10T04:57:23;13.80;99.90
52867;DHT22;38739;53.324;6.862;2023-06-10T04:59:49;13.80;99.90
52867;DHT22;38739;53.324;6.862;2023-06-10T05:02:15;13.90;99.90
52867;DHT22;38739;53.324;6.862;2023-06-10T05:04:41;13.90;99.90
52867;DHT22;38739;53.324;6.862;2023-06-10T05:07:07;13.90;99.90
52867;DHT22;38739;53.324;6.862;2023-06-10T05:09:32;14.00;99.90
52867;DHT22;38739;53.324;6.862;2023-06-10T05:11:58;14.00;99.90
52867;DHT22;38739;53.324;6.862;2023-06-10T05:14:24;14.00;99.90
52867;DHT22;38739;53.324;6.862;2023-06-10T05:16:50;14.00;99.90
52867;DHT22;38739;53.324;6.862;2023-06-10T05:19:16;14.00;99.90
52867;DHT22;38739;53.324;6.862;2023-06-10T05:21:42;14.10;99.90
52867;DHT22;38739;53.324;6.862;2023-06-10T05:24:08;14.10;99.90
52867;DHT22;38739;53.324;6.862;2023-06-10T05:26:35;14.10;99.90
52867;DHT22;38739;53.324;6.862;2023-06-10T05:29:05;14.10;99.90
52867;DHT22;38739;53.324;6.862;2023-06-10T05:31:31;14.10;99.90
52867;DHT22;38739;53.324;6.862;2023-06-10T05:33:57;14.20;99.90
52867;DHT22;38739;53.324;6.862;2023-06-10T05:36:23;14.20;99.90
52867;DHT22;38739;53.324;6.862;2023-06-10T05:38:50;14.20;99.90
52867;DHT22;38739;53.324;6.862;2023-06-10T05:41:16;14.20;99.90
52867;DHT22;38739;53.324;6.862;2023-06-10T05:43:42;14.30;99.90
52867;DHT22;38739;53.324;6.862;2023-06-10T05:46:07;14.30;99.90
52867;DHT22;38739;53.324;6.862;2023-06-10T05:48:33;14.30;99.90
52867;DHT22;38739;53.324;6.862;2023-06-10T05:50:59;14.40;99.90
52867;DHT22;38739;53.324;6.862;2023-06-10T05:53:25;14.40;99.90
52867;DHT22;38739;53.324;6.862;2023-06-10T05:55:50;14.40;99.90
52867;DHT22;38739;53.324;6.862;2023-06-10T05:58:17;14.40;99.90
52867;DHT22;38739;53.324;6.862;2023-06-10T06:00:43;14.50;99.90
52867;DHT22;38739;53.324;6.862;2023-06-10T06:03:09;14.60;99.90
52867;DHT22;38739;53.324;6.862;2023-06-10T06:05:36;14.60;99.90
52867;DHT22;38739;53.324;6.862;2023-06-10T06:08:04;14.60;99.90
52867;DHT22;38739;53.324;6.862;2023-06-10T06:10:30;14.60;99.90
52867;DHT22;38739;53.324;6.862;2023-06-10T06:12:55;14.70;99.90
52867;DHT22;38739;53.324;6.862;2023-06-10T06:15:21;14.70;99.90
52867;DHT22;38739;53.324;6.862;2023-06-10T06:17:47;14.80;99.90
52867;DHT22;38739;53.324;6.862;2023-06-10T06:20:13;14.90;99.90
52867;DHT22;38739;53.324;6.862;2023-06-10T06:22:38;14.90;99.90
52867;DHT22;38739;53.324;6.862;2023-06-10T06:25:05;15.00;99.90
52867;DHT22;38739;53.324;6.862;2023-06-10T06:27:31;15.10;99.90
52867;DHT22;38739;53.324;6.862;2023-06-10T06:29:57;15.20;99.90
52867;DHT22;38739;53.324;6.862;2023-06-10T06:32:22;15.30;99.90
52867;DHT22;38739;53.324;6.862;2023-06-10T06:34:50;15.40;99.90
52867;DHT22;38739;53.324;6.862;2023-06-10T06:37:21;15.50;99.90
52867;DHT22;38739;53.324;6.862;2023-06-10T06:39:47;15.60;99.90
52867;DHT22;38739;53.324;6.862;2023-06-10T06:42:13;15.70;99.90
52867;DHT22;38739;53.324;6.862;2023-06-10T06:44:38;15.90;99.90
52867;DHT22;38739;53.324;6.862;2023-06-10T06:47:05;16.00;99.90
52867;DHT22;38739;53.324;6.862;2023-06-10T06:49:30;16.10;99.90
52867;DHT22;38739;53.324;6.862;2023-06-10T06:51:56;16.20;99.90
52867;DHT22;38739;53.324;6.862;2023-06-10T06:54:22;16.30;99.90
52867;DHT22;38739;53.324;6.862;2023-06-10T06:56:47;16.50;99.90
52867;DHT22;38739;53.324;6.862;2023-06-10T06:59:13;16.60;99.90
52867;DHT22;38739;53.324;6.862;2023-06-10T07:01:39;16.70;99.90
52867;DHT22;38739;53.324;6.862;2023-06-10T07:04:05;16.90;99.90
52867;DHT22;38739;53.324;6.862;2023-06-10T07:06:31;17.00;99.90
52867;DHT22;38739;53.324;6.862;2023-06-10T07:08:57;17.20;99.90
52867;DHT22;38739;53.324;6.862;2023-06-10T07:11:23;17.30;99.90
52867;DHT22;38739;53.324;6.862;2023-06-10T07:13:49;17.50;99.90
52867;DHT22;38739;53.324;6.862;2023-06-10T07:16:14;17.70;99.90
52867;DHT22;38739;53.324;6.862;2023-06-10T07:18:40;17.90;99.90
52867;DHT22;38739;53.324;6.862;2023-06-10T07:21:06;18.20;99.90
52867;DHT22;38739;53.324;6.862;2023-06-10T07:23:31;18.40;99.90
52867;DHT22;38739;53.324;6.862;2023-06-10T07:25:57;18.60;99.90
52867;DHT22;38739;53.324;6.862;2023-06-10T07:28:23;18.80;99.90
52867;DHT22;38739;53.324;6.862;2023-06-10T07:30:48;19.10;99.90
52867;DHT22;38739;53.324;6.862;2023-06-10T07:33:14;19.30;99.90
52867;DHT22;38739;53.324;6.862;2023-06-10T07:35:40;19.60;99.90
52867;DHT22;38739;53.324;6.862;2023-06-10T07:38:08;19.70;99.90
52867;DHT22;38739;53.324;6.862;2023-06-10T07:40:34;19.90;99.90
52867;DHT22;38739;53.324;6.862;2023-06-10T07:43:00;20.10;99.90
52867;DHT22;38739;53.324;6.862;2023-06-10T07:45:25;20.20;99.90
52867;DHT22;38739;53.324;6.862;2023-06-10T07:47:51;20.30;99.90
52867;DHT22;38739;53.324;6.862;2023-06-10T07:50:17;20.50;99.90
52867;DHT22;38739;53.324;6.862;2023-06-10T07:52:42;20.50;99.90
52867;DHT22;38739;53.324;6.862;2023-06-10T07:55:08;20.60;99.90
52867;DHT22;38739;53.324;6.862;2023-06-10T07:57:34;20.70;99.90
52867;DHT22;38739;53.324;6.862;2023-06-10T08:00:03;20.90;99.90
52867;DHT22;38739;53.324;6.862;2023-06-10T08:02:30;21.10;99.90
52867;DHT22;38739;53.324;6.862;2023-06-10T08:04:55;21.40;99.90
52867;DHT22;38739;53.324;6.862;2023-06-10T08:07:21;21.50;99.90
52867;DHT22;38739;53.324;6.862;2023-06-10T08:09:47;21.70;99.90
52867;DHT22;38739;53.324;6.862;2023-06-10T08:12:13;22.00;99.90
52867;DHT22;38739;53.324;6.862;2023-06-10T08:14:39;22.20;99.90
52867;DHT22;38739;53.324;6.862;2023-06-10T08:17:05;22.40;99.90
52867;DHT22;38739;53.324;6.862;2023-06-10T08:19:32;22.60;99.90
52867;DHT22;38739;53.324;6.862;2023-06-10T08:21:57;22.80;99.90
52867;DHT22;38739;53.324;6.862;2023-06-10T08:24:23;22.90;99.90
52867;DHT22;38739;53.324;6.862;2023-06-10T08:26:49;23.00;99.90
52867;DHT22;38739;53.324;6.862;2023-06-10T08:29:14;23.20;99.90
52867;DHT22;38739;53.324;6.862;2023-06-10T08:31:44;23.40;99.90
52867;DHT22;38739;53.324;6.862;2023-06-10T08:34:10;23.60;99.90
52867;DHT22;38739;53.324;6.862;2023-06-10T08:36:35;23.80;99.90
52867;DHT22;38739;53.324;6.862;2023-06-10T08:39:01;24.00;99.90
52867;DHT22;38739;53.324;6.862;2023-06-10T08:41:28;24.10;99.90
52867;DHT22;38739;53.324;6.862;2023-06-10T08:44:22;24.10;99.90
52867;DHT22;38739;53.324;6.862;2023-06-10T08:46:52;24.40;99.90
52867;DHT22;38739;53.324;6.862;2023-06-10T08:49:19;24.40;99.90
52867;DHT22;38739;53.324;6.862;2023-06-10T08:51:51;24.60;99.90
52867;DHT22;38739;53.324;6.862;2023-06-10T08:54:27;24.70;99.90
52867;DHT22;38739;53.324;6.862;2023-06-10T08:56:55;24.90;99.90
52867;DHT22;38739;53.324;6.862;2023-06-10T08:59:24;25.00;99.90
52867;DHT22;38739;53.324;6.862;2023-06-10T09:01:51;25.00;99.90
52867;DHT22;38739;53.324;6.862;2023-06-10T09:04:18;25.10;99.90
52867;DHT22;38739;53.324;6.862;2023-06-10T09:06:45;25.20;99.90
52867;DHT22;38739;53.324;6.862;2023-06-10T09:09:14;25.40;99.00
52867;DHT22;38739;53.324;6.862;2023-06-10T09:11:42;25.50;98.70
52867;DHT22;38739;53.324;6.862;2023-06-10T09:14:08;25.70;98.10
52867;DHT22;38739;53.324;6.862;2023-06-10T09:16:34;25.70;97.20
52867;DHT22;38739;53.324;6.862;2023-06-10T09:19:00;25.80;96.20
52867;DHT22;38739;53.324;6.862;2023-06-10T09:21:27;25.80;96.10
52867;DHT22;38739;53.324;6.862;2023-06-10T09:23:53;26.10;96.10
52867;DHT22;38739;53.324;6.862;2023-06-10T09:26:19;26.30;96.10
52867;DHT22;38739;53.324;6.862;2023-06-10T09:28:49;26.50;95.30
52867;DHT22;38739;53.324;6.862;2023-06-10T09:31:17;26.70;94.50
52867;DHT22;38739;53.324;6.862;2023-06-10T09:33:47;26.80;93.90
52867;DHT22;38739;53.324;6.862;2023-06-10T09:36:22;26.80;93.80
52867;DHT22;38739;53.324;6.862;2023-06-10T09:38:49;26.90;92.90
52867;DHT22;38739;53.324;6.862;2023-06-10T09:41:16;27.10;93.10
52867;DHT22;38739;53.324;6.862;2023-06-10T09:43:44;27.10;92.10
52867;DHT22;38739;53.324;6.862;2023-06-10T09:46:20;27.30;92.40
52867;DHT22;38739;53.324;6.862;2023-06-10T09:48:47;27.40;90.80
52867;DHT22;38739;53.324;6.862;2023-06-10T09:51:16;27.60;91.90
52867;DHT22;38739;53.324;6.862;2023-06-10T09:53:49;27.70;89.90
52867;DHT22;38739;53.324;6.862;2023-06-10T09:56:16;27.70;89.30
52867;DHT22;38739;53.324;6.862;2023-06-10T09:58:42;27.90;90.40
52867;DHT22;38739;53.324;6.862;2023-06-10T10:01:13;28.10;89.30
52867;DHT22;38739;53.324;6.862;2023-06-10T10:03:46;28.30;88.10
52867;DHT22;38739;53.324;6.862;2023-06-10T10:06:13;28.50;87.90
52867;DHT22;38739;53.324;6.862;2023-06-10T10:08:40;28.60;86.30
52867;DHT22;38739;53.324;6.862;2023-06-10T10:11:05;28.60;85.30
52867;DHT22;38739;53.324;6.862;2023-06-10T10:13:33;28.60;84.30
52867;DHT22;38739;53.324;6.862;2023-06-10T10:16:04;28.70;83.40
52867;DHT22;38739;53.324;6.862;2023-06-10T10:18:32;28.70;84.80
52867;DHT22;38739;53.324;6.862;2023-06-10T10:21:02;28.80;84.90
52867;DHT22;38739;53.324;6.862;2023-06-10T10:23:44;29.00;85.00
52867;DHT22;38739;53.324;6.862;2023-06-10T10:26:14;29.10;82.60
52867;DHT22;38739;53.324;6.862;2023-06-10T10:28:51;29.10;82.20
52867;DHT22;38739;53.324;6.862;2023-06-10T10:31:19;29.10;79.10
52867;DHT22;38739;53.324;6.862;2023-06-10T10:36:16;29.20;78.70
52867;DHT22;38739;53.324;6.862;2023-06-10T10:38:43;29.30;79.10
52867;DHT22;38739;53.324;6.862;2023-06-10T10:41:11;29.50;78.40
52867;DHT22;38739;53.324;6.862;2023-06-10T10:43:37;29.60;78.10
52867;DHT22;38739;53.324;6.862;2023-06-10T10:46:12;29.60;77.60
52867;DHT22;38739;53.324;6.862;2023-06-10T10:48:38;29.80;77.40
52867;DHT22;38739;53.324;6.862;2023-06-10T10:51:07;29.80;79.40
52867;DHT22;38739;53.324;6.862;2023-06-10T10:53:32;29.90;78.10
52867;DHT22;38739;53.324;6.862;2023-06-10T10:58:25;30.20;77.00
52867;DHT22;38739;53.324;6.862;2023-06-10T11:00:51;30.10;76.60
52867;DHT22;38739;53.324;6.862;2023-06-10T11:03:17;30.10;77.20
52867;DHT22;38739;53.324;6.862;2023-06-10T11:05:47;30.20;75.80
52867;DHT22;38739;53.324;6.862;2023-06-10T11:08:15;30.20;75.10
52867;DHT22;38739;53.324;6.862;2023-06-10T11:11:00;30.40;76.00
52867;DHT22;38739;53.324;6.862;2023-06-10T11:13:27;30.30;74.60
52867;DHT22;38739;53.324;6.862;2023-06-10T11:15:57;30.40;76.20
52867;DHT22;38739;53.324;6.862;2023-06-10T11:18:28;30.70;75.10
52867;DHT22;38739;53.324;6.862;2023-06-10T11:21:01;30.90;75.20
52867;DHT22;38739;53.324;6.862;2023-06-10T11:31:22;30.50;73.50
52867;DHT22;38739;53.324;6.862;2023-06-10T11:33:54;30.60;75.40
52867;DHT22;38739;53.324;6.862;2023-06-10T11:36:21;30.40;73.80
52867;DHT22;38739;53.324;6.862;2023-06-10T11:38:46;30.70;75.70
52867;DHT22;38739;53.324;6.862;2023-06-10T11:41:14;30.60;74.00
52867;DHT22;38739;53.324;6.862;2023-06-10T11:43:43;30.60;73.70
52867;DHT22;38739;53.324;6.862;2023-06-10T11:46:10;30.70;73.90
52867;DHT22;38739;53.324;6.862;2023-06-10T11:48:36;31.00;74.10
52867;DHT22;38739;53.324;6.862;2023-06-10T11:51:06;31.00;73.70
52867;DHT22;38739;53.324;6.862;2023-06-10T11:53:32;31.00;74.00
52867;DHT22;38739;53.324;6.862;2023-06-10T11:55:58;31.30;73.00
52867;DHT22;38739;53.324;6.862;2023-06-10T11:58:24;31.50;72.40
52867;DHT22;38739;53.324;6.862;2023-06-10T12:00:54;31.60;71.30
52867;DHT22;38739;53.324;6.862;2023-06-10T12:03:24;31.60;71.50
52867;DHT22;38739;53.324;6.862;2023-06-10T12:06:01;31.60;70.80
52867;DHT22;38739;53.324;6.862;2023-06-10T12:08:27;31.80;70.40
52867;DHT22;38739;53.324;6.862;2023-06-10T12:10:53;31.60;69.80
52867;DHT22;38739;53.324;6.862;2023-06-10T12:13:19;31.40;70.10
52867;DHT22;38739;53.324;6.862;2023-06-10T12:15:45;31.60;71.40
52867;DHT22;38739;53.324;6.862;2023-06-10T12:18:24;31.60;70.50
52867;DHT22;38739;53.324;6.862;2023-06-10T12:20:51;31.80;70.80
52867;DHT22;38739;53.324;6.862;2023-06-10T12:23:17;31.40;70.30
52867;DHT22;38739;53.324;6.862;2023-06-10T12:25:54;31.00;70.40
52867;DHT22;38739;53.324;6.862;2023-06-10T12:28:25;31.20;70.20
52867;DHT22;38739;53.324;6.862;2023-06-10T12:30:51;31.20;70.20
52867;DHT22;38739;53.324;6.862;2023-06-10T12:33:18;31.50;71.40
52867;DHT22;38739;53.324;6.862;2023-06-10T12:35:49;31.60;70.90
52867;DHT22;38739;53.324;6.862;2023-06-10T12:38:25;31.40;68.60
52867;DHT22;38739;53.324;6.862;2023-06-10T12:40:53;31.20;69.10
52867;DHT22;38739;53.324;6.862;2023-06-10T12:43:24;31.40;70.30
52867;DHT22;38739;53.324;6.862;2023-06-10T12:45:51;31.80;69.10
52867;DHT22;38739;53.324;6.862;2023-06-10T12:48:21;31.90;68.30
52867;DHT22;38739;53.324;6.862;2023-06-10T12:50:55;31.60;68.10
52867;DHT22;38739;53.324;6.862;2023-06-10T12:53:21;31.50;69.80
52867;DHT22;38739;53.324;6.862;2023-06-10T12:55:52;31.80;70.20
52867;DHT22;38739;53.324;6.862;2023-06-10T12:58:20;32.00;69.00
52867;DHT22;38739;53.324;6.862;2023-06-10T13:00:46;32.20;67.30
52867;DHT22;38739;53.324;6.862;2023-06-10T13:03:14;32.50;67.10
52867;DHT22;38739;53.324;6.862;2023-06-10T13:05:40;32.80;66.90
52867;DHT22;38739;53.324;6.862;2023-06-10T13:08:07;33.00;66.80
52867;DHT22;38739;53.324;6.862;2023-06-10T13:10:35;32.70;65.80
52867;DHT22;38739;53.324;6.862;2023-06-10T13:13:01;32.90;65.50
52867;DHT22;38739;53.324;6.862;2023-06-10T13:15:28;33.40;65.20
52867;DHT22;38739;53.324;6.862;2023-06-10T13:17:53;33.40;63.90
52867;DHT22;38739;53.324;6.862;2023-06-10T13:20:20;33.40;63.10
52867;DHT22;38739;53.324;6.862;2023-06-10T13:22:46;33.50;63.30
52867;DHT22;38739;53.324;6.862;2023-06-10T13:25:13;33.80;62.80
52867;DHT22;38739;53.324;6.862;2023-06-10T13:27:39;33.80;62.00
52867;DHT22;38739;53.324;6.862;2023-06-10T13:30:06;34.10;61.30
52867;DHT22;38739;53.324;6.862;2023-06-10T13:32:32;34.20;60.70
52867;DHT22;38739;53.324;6.862;2023-06-10T13:34:57;34.40;60.40
52867;DHT22;38739;53.324;6.862;2023-06-10T13:37:23;34.50;61.40
52867;DHT22;38739;53.324;6.862;2023-06-10T13:39:49;34.70;61.20
52867;DHT22;38739;53.324;6.862;2023-06-10T13:42:19;35.10;60.50
52867;DHT22;38739;53.324;6.862;2023-06-10T13:44:46;35.10;59.80
52867;DHT22;38739;53.324;6.862;2023-06-10T13:47:13;35.10;59.10
52867;DHT22;38739;53.324;6.862;2023-06-10T13:49:39;35.30;59.60
52867;DHT22;38739;53.324;6.862;2023-06-10T13:52:06;35.00;60.00
52867;DHT22;38739;53.324;6.862;2023-06-10T13:54:33;34.90;59.40
52867;DHT22;38739;53.324;6.862;2023-06-10T13:56:59;35.00;59.00
52867;DHT22;38739;53.324;6.862;2023-06-10T13:59:25;34.70;59.00
52867;DHT22;38739;53.324;6.862;2023-06-10T14:01:51;34.70;59.50
52867;DHT22;38739;53.324;6.862;2023-06-10T14:04:17;34.70;58.90
52867;DHT22;38739;53.324;6.862;2023-06-10T14:06:42;34.80;58.30
52867;DHT22;38739;53.324;6.862;2023-06-10T14:09:09;34.80;58.10
52867;DHT22;38739;53.324;6.862;2023-06-10T14:11:35;34.80;58.60
52867;DHT22;38739;53.324;6.862;2023-06-10T14:14:00;34.60;58.00
52867;DHT22;38739;53.324;6.862;2023-06-10T14:16:27;34.40;57.30
52867;DHT22;38739;53.324;6.862;2023-06-10T14:18:52;34.30;57.80
52867;DHT22;38739;53.324;6.862;2023-06-10T14:21:18;34.10;57.70
52867;DHT22;38739;53.324;6.862;2023-06-10T14:23:44;34.00;58.20
52867;DHT22;38739;53.324;6.862;2023-06-10T14:26:11;34.10;58.50
52867;DHT22;38739;53.324;6.862;2023-06-10T14:28:37;33.80;57.90
52867;DHT22;38739;53.324;6.862;2023-06-10T14:31:02;33.90;57.80
52867;DHT22;38739;53.324;6.862;2023-06-10T14:33:28;33.90;58.20
52867;DHT22;38739;53.324;6.862;2023-06-10T14:35:54;33.90;57.60
52867;DHT22;38739;53.324;6.862;2023-06-10T14:38:20;34.00;57.90
52867;DHT22;38739;53.324;6.862;2023-06-10T14:40:46;34.10;55.80
52867;DHT22;38739;53.324;6.862;2023-06-10T14:43:12;33.80;55.00
52867;DHT22;38739;53.324;6.862;2023-06-10T14:45:39;33.80;55.90
52867;DHT22;38739;53.324;6.862;2023-06-10T14:48:05;33.70;55.60
52867;DHT22;38739;53.324;6.862;2023-06-10T14:50:31;33.90;56.00
52867;DHT22;38739;53.324;6.862;2023-06-10T14:52:58;33.70;54.30
52867;DHT22;38739;53.324;6.862;2023-06-10T14:55:24;33.80;57.00
52867;DHT22;38739;53.324;6.862;2023-06-10T14:57:50;33.80;57.40
52867;DHT22;38739;53.324;6.862;2023-06-10T15:00:16;33.50;56.30
52867;DHT22;38739;53.324;6.862;2023-06-10T15:02:46;33.50;56.50
52867;DHT22;38739;53.324;6.862;2023-06-10T15:05:15;33.40;56.80
52867;DHT22;38739;53.324;6.862;2023-06-10T15:07:42;33.30;56.30
52867;DHT22;38739;53.324;6.862;2023-06-10T15:10:08;33.40;57.50
52867;DHT22;38739;53.324;6.862;2023-06-10T15:12:34;33.10;56.60
52867;DHT22;38739;53.324;6.862;2023-06-10T15:15:00;32.80;55.50
52867;DHT22;38739;53.324;6.862;2023-06-10T15:17:26;32.60;57.40
52867;DHT22;38739;53.324;6.862;2023-06-10T15:19:52;32.50;56.10
52867;DHT22;38739;53.324;6.862;2023-06-10T15:22:17;32.40;56.40
52867;DHT22;38739;53.324;6.862;2023-06-10T15:24:43;32.40;58.30
52867;DHT22;38739;53.324;6.862;2023-06-10T15:27:09;32.10;55.30
52867;DHT22;38739;53.324;6.862;2023-06-10T15:29:35;31.90;55.30
52867;DHT22;38739;53.324;6.862;2023-06-10T15:32:01;31.80;57.40
52867;DHT22;38739;53.324;6.862;2023-06-10T15:34:26;31.70;56.80
52867;DHT22;38739;53.324;6.862;2023-06-10T15:36:52;31.70;56.60
52867;DHT22;38739;53.324;6.862;2023-06-10T15:39:18;31.50;57.80
52867;DHT22;38739;53.324;6.862;2023-06-10T15:41:44;31.50;56.70
52867;DHT22;38739;53.324;6.862;2023-06-10T15:44:10;31.50;57.40